AEN2028 EDDH-EYVI
Flight info
| Callsign | AEN2028 |
|---|---|
| Flight time | 1h 34m |
| Altitude | 37000 |
| Route | LUGEG3G LUGEG P605 MEGAR DCT KOSEB DCT NINTA DCT ADAXA DCT VAGVO DCT OTNAV |
| Aircraft | A319/M-SDE3FGHIRWY/LB1 |
Departure
| Time | 2026-04-23 07:38 |
|---|---|
| Airport | Hamburg Helmut Schmidt Airport (EDDH) |
Arrival
| Time | 2026-04-23 09:13 |
|---|---|
| Airport | Vilnius International Airport (EYVI) |
| Time | Latitude | Longitude | Altitude | Speed | Heading |
|---|---|---|---|---|---|
| 2026-04-23 07:07 | 53.63331 | 10.00356 | 49 ft | 0 kts | 86° |
| 2026-04-23 07:29 | 53.63330 | 10.00326 | 48 ft | 4 kts | 86° |
| 2026-04-23 07:30 | 53.63328 | 10.00282 | 46 ft | 3 kts | 86° |
| 2026-04-23 07:30 | 53.63328 | 10.00247 | 43 ft | 4 kts | 129° |
| 2026-04-23 07:30 | 53.63349 | 10.00231 | 45 ft | 4 kts | 176° |
| 2026-04-23 07:30 | 53.63358 | 10.00230 | 43 ft | 0 kts | 176° |
| 2026-04-23 07:34 | 53.63351 | 10.00230 | 45 ft | 3 kts | 176° |
| 2026-04-23 07:34 | 53.63315 | 10.00235 | 46 ft | 8 kts | 175° |
| 2026-04-23 07:34 | 53.63260 | 10.00217 | 48 ft | 7 kts | 224° |
| 2026-04-23 07:34 | 53.63208 | 10.00180 | 48 ft | 10 kts | 175° |
| 2026-04-23 07:35 | 53.63133 | 10.00189 | 48 ft | 11 kts | 175° |
| 2026-04-23 07:35 | 53.63056 | 10.00170 | 47 ft | 11 kts | 212° |
| 2026-04-23 07:35 | 53.62986 | 10.00094 | 48 ft | 13 kts | 211° |
| 2026-04-23 07:35 | 53.62929 | 10.00022 | 48 ft | 10 kts | 233° |
| 2026-04-23 07:36 | 53.62899 | 9.99924 | 48 ft | 6 kts | 243° |
| 2026-04-23 07:36 | 53.62894 | 9.99906 | 48 ft | 0 kts | 243° |
| 2026-04-23 07:36 | 53.62892 | 9.99899 | 44 ft | 2 kts | 243° |
| 2026-04-23 07:37 | 53.62879 | 9.99856 | 47 ft | 7 kts | 243° |
| 2026-04-23 07:37 | 53.62869 | 9.99745 | 42 ft | 10 kts | 311° |
| 2026-04-23 07:37 | 53.62920 | 9.99700 | 45 ft | 11 kts | 333° |
| 2026-04-23 07:37 | 53.63185 | 9.99471 | 47 ft | 81 kts | 333° |
| 2026-04-23 07:38 | 53.63891 | 9.98859 | 49 ft | 144 kts | 333° |
| 2026-04-23 07:38 | 53.64871 | 9.98039 | 497 ft | 161 kts | 330° |
| 2026-04-23 07:38 | 53.65874 | 9.97194 | 1294 ft | 163 kts | 331° |
| 2026-04-23 07:38 | 53.66887 | 9.96317 | 2076 ft | 168 kts | 331° |
| 2026-04-23 07:39 | 53.68002 | 9.95341 | 2573 ft | 188 kts | 332° |
| 2026-04-23 07:39 | 53.69246 | 9.94612 | 3193 ft | 199 kts | 356° |
| 2026-04-23 07:39 | 53.70631 | 9.94739 | 4147 ft | 197 kts | 359° |
| 2026-04-23 07:39 | 53.72001 | 9.94796 | 4910 ft | 202 kts | 358° |
| 2026-04-23 07:40 | 53.73404 | 9.95138 | 5676 ft | 212 kts | 21° |
| 2026-04-23 07:40 | 53.74528 | 9.96952 | 6171 ft | 242 kts | 52° |
| 2026-04-23 07:40 | 53.75324 | 9.99544 | 6881 ft | 253 kts | 60° |
| 2026-04-23 07:40 | 53.76049 | 10.02371 | 7461 ft | 272 kts | 62° |
| 2026-04-23 07:41 | 53.76796 | 10.05363 | 8268 ft | 279 kts | 62° |
| 2026-04-23 07:41 | 53.77574 | 10.08388 | 9204 ft | 282 kts | 62° |
| 2026-04-23 07:41 | 53.78382 | 10.11414 | 10145 ft | 285 kts | 61° |
| 2026-04-23 07:41 | 53.79225 | 10.14468 | 10943 ft | 291 kts | 60° |
| 2026-04-23 07:42 | 53.80138 | 10.17688 | 11262 ft | 315 kts | 60° |
| 2026-04-23 07:42 | 53.81134 | 10.21147 | 11567 ft | 337 kts | 60° |
| 2026-04-23 07:42 | 53.82173 | 10.24754 | 12217 ft | 345 kts | 61° |
| 2026-04-23 07:42 | 53.83240 | 10.28479 | 12979 ft | 349 kts | 61° |
| 2026-04-23 07:43 | 53.84303 | 10.32206 | 13752 ft | 353 kts | 61° |
| 2026-04-23 07:43 | 53.85375 | 10.35975 | 14480 ft | 357 kts | 61° |
| 2026-04-23 07:43 | 53.86456 | 10.39789 | 15165 ft | 361 kts | 62° |
| 2026-04-23 07:43 | 53.87531 | 10.43592 | 15857 ft | 364 kts | 62° |
| 2026-04-23 07:44 | 53.88627 | 10.47470 | 16545 ft | 367 kts | 62° |
| 2026-04-23 07:44 | 53.89735 | 10.51381 | 17236 ft | 370 kts | 62° |
| 2026-04-23 07:44 | 53.90854 | 10.55332 | 17926 ft | 373 kts | 62° |
| 2026-04-23 07:44 | 53.91978 | 10.59307 | 18605 ft | 376 kts | 62° |
| 2026-04-23 07:45 | 53.93112 | 10.63325 | 19195 ft | 379 kts | 62° |
| 2026-04-23 07:45 | 53.94448 | 10.67176 | 19786 ft | 379 kts | 52° |
| 2026-04-23 07:45 | 53.96160 | 10.70587 | 20381 ft | 381 kts | 46° |
| 2026-04-23 07:45 | 53.97387 | 10.72806 | 20786 ft | 383 kts | 46° |
| 2026-04-23 07:46 | 53.99217 | 10.76117 | 21370 ft | 386 kts | 46° |
| 2026-04-23 07:46 | 54.01056 | 10.79453 | 21939 ft | 388 kts | 46° |
| 2026-04-23 07:46 | 54.02905 | 10.82815 | 22489 ft | 391 kts | 46° |
| 2026-04-23 07:46 | 54.04770 | 10.86218 | 23022 ft | 394 kts | 47° |
| 2026-04-23 07:47 | 54.06642 | 10.89642 | 23548 ft | 397 kts | 47° |
| 2026-04-23 07:47 | 54.08524 | 10.93096 | 24040 ft | 399 kts | 47° |
| 2026-04-23 07:47 | 54.10416 | 10.96578 | 24471 ft | 401 kts | 47° |
| 2026-04-23 07:47 | 54.12318 | 11.00076 | 24899 ft | 403 kts | 47° |
| 2026-04-23 07:48 | 54.14229 | 11.03599 | 25336 ft | 405 kts | 47° |
| 2026-04-23 07:48 | 54.16141 | 11.07131 | 25763 ft | 407 kts | 47° |
| 2026-04-23 07:48 | 54.18059 | 11.10691 | 26203 ft | 408 kts | 47° |
| 2026-04-23 07:48 | 54.19980 | 11.14270 | 26627 ft | 410 kts | 47° |
| 2026-04-23 07:49 | 54.21912 | 11.17876 | 27046 ft | 412 kts | 47° |
| 2026-04-23 07:49 | 54.23847 | 11.21495 | 27469 ft | 413 kts | 47° |
| 2026-04-23 07:49 | 54.25786 | 11.25131 | 27877 ft | 415 kts | 47° |
| 2026-04-23 07:49 | 54.27739 | 11.28787 | 28280 ft | 417 kts | 47° |
| 2026-04-23 07:50 | 54.29695 | 11.32451 | 28679 ft | 418 kts | 47° |
| 2026-04-23 07:50 | 54.31662 | 11.36143 | 29047 ft | 420 kts | 47° |
| 2026-04-23 07:50 | 54.33632 | 11.39855 | 29421 ft | 422 kts | 47° |
| 2026-04-23 07:50 | 54.35609 | 11.43589 | 29778 ft | 424 kts | 47° |
| 2026-04-23 07:51 | 54.37591 | 11.47340 | 30133 ft | 425 kts | 47° |
| 2026-04-23 07:51 | 54.39584 | 11.51109 | 30456 ft | 427 kts | 47° |
| 2026-04-23 07:51 | 54.41585 | 11.54892 | 30744 ft | 429 kts | 47° |
| 2026-04-23 07:51 | 54.43584 | 11.58677 | 31139 ft | 428 kts | 47° |
| 2026-04-23 07:52 | 54.45575 | 11.62457 | 31559 ft | 426 kts | 48° |
| 2026-04-23 07:52 | 54.47369 | 11.66508 | 31964 ft | 425 kts | 56° |
| 2026-04-23 07:52 | 54.48859 | 11.70900 | 32387 ft | 424 kts | 59° |
| 2026-04-23 07:52 | 54.50323 | 11.75300 | 32808 ft | 423 kts | 59° |
| 2026-04-23 07:53 | 54.51784 | 11.79681 | 33231 ft | 421 kts | 59° |
| 2026-04-23 07:53 | 54.53240 | 11.84047 | 33660 ft | 420 kts | 59° |
| 2026-04-23 07:53 | 54.54692 | 11.88408 | 34093 ft | 419 kts | 59° |
| 2026-04-23 07:53 | 54.56132 | 11.92750 | 34493 ft | 417 kts | 59° |
| 2026-04-23 07:54 | 54.57569 | 11.97087 | 34860 ft | 416 kts | 59° |
| 2026-04-23 07:54 | 54.58997 | 12.01407 | 35219 ft | 415 kts | 59° |
| 2026-04-23 07:54 | 54.60422 | 12.05734 | 35578 ft | 414 kts | 59° |
| 2026-04-23 07:54 | 54.61841 | 12.10051 | 35908 ft | 413 kts | 59° |
| 2026-04-23 07:55 | 54.63251 | 12.14357 | 36231 ft | 412 kts | 59° |
| 2026-04-23 07:55 | 54.64658 | 12.18669 | 36554 ft | 412 kts | 59° |
| 2026-04-23 07:55 | 54.66062 | 12.22972 | 36864 ft | 411 kts | 59° |
| 2026-04-23 07:55 | 54.67466 | 12.27270 | 37159 ft | 411 kts | 58° |
| 2026-04-23 07:56 | 54.68871 | 12.31565 | 37248 ft | 410 kts | 58° |
| 2026-04-23 07:56 | 54.71672 | 12.40157 | 37257 ft | 410 kts | 58° |
| 2026-04-23 07:57 | 54.74456 | 12.48750 | 37251 ft | 409 kts | 59° |
| 2026-04-23 07:57 | 54.77230 | 12.57354 | 37252 ft | 409 kts | 59° |
| 2026-04-23 07:58 | 54.79894 | 12.66066 | 37257 ft | 409 kts | 61° |
| 2026-04-23 07:58 | 54.82406 | 12.74929 | 37258 ft | 410 kts | 61° |
| 2026-04-23 07:59 | 54.84898 | 12.83812 | 37261 ft | 410 kts | 61° |
| 2026-04-23 07:59 | 54.87412 | 12.92685 | 37262 ft | 410 kts | 61° |
| 2026-04-23 08:00 | 54.89939 | 13.01559 | 37264 ft | 410 kts | 60° |
| 2026-04-23 08:00 | 54.92451 | 13.10440 | 37266 ft | 410 kts | 61° |
| 2026-04-23 08:01 | 54.94949 | 13.19343 | 37265 ft | 409 kts | 61° |
| 2026-04-23 08:01 | 54.97445 | 13.28255 | 37261 ft | 409 kts | 61° |
| 2026-04-23 08:02 | 54.99934 | 13.37167 | 37256 ft | 409 kts | 60° |
| 2026-04-23 08:02 | 55.02415 | 13.46088 | 37255 ft | 409 kts | 60° |
| 2026-04-23 08:03 | 55.04886 | 13.55022 | 37261 ft | 409 kts | 60° |
| 2026-04-23 08:03 | 55.07359 | 13.63964 | 37253 ft | 409 kts | 60° |
| 2026-04-23 08:04 | 55.09824 | 13.72920 | 37250 ft | 409 kts | 60° |
| 2026-04-23 08:04 | 55.12283 | 13.81884 | 37245 ft | 409 kts | 60° |
| 2026-04-23 08:05 | 55.14734 | 13.90872 | 37246 ft | 409 kts | 60° |
| 2026-04-23 08:05 | 55.17194 | 13.99929 | 37240 ft | 410 kts | 60° |
| 2026-04-23 08:06 | 55.19630 | 14.08941 | 37238 ft | 410 kts | 60° |
| 2026-04-23 08:06 | 55.22059 | 14.17966 | 37238 ft | 410 kts | 60° |
| 2026-04-23 08:07 | 55.24482 | 14.26999 | 37240 ft | 410 kts | 60° |
| 2026-04-23 08:07 | 55.26903 | 14.36034 | 37238 ft | 410 kts | 60° |
| 2026-04-23 08:08 | 55.29297 | 14.45028 | 37235 ft | 409 kts | 60° |
| 2026-04-23 08:08 | 55.31715 | 14.54145 | 37236 ft | 409 kts | 60° |
| 2026-04-23 08:09 | 55.34109 | 14.63200 | 37237 ft | 409 kts | 60° |
| 2026-04-23 08:09 | 55.36488 | 14.72266 | 37238 ft | 408 kts | 60° |
| 2026-04-23 08:10 | 55.38864 | 14.81327 | 37240 ft | 408 kts | 60° |
| 2026-04-23 08:10 | 55.42408 | 14.94927 | 37240 ft | 407 kts | 60° |
| 2026-04-23 08:11 | 55.44764 | 15.03991 | 37241 ft | 407 kts | 60° |
| 2026-04-23 08:11 | 55.47115 | 15.13052 | 37239 ft | 406 kts | 60° |
| 2026-04-23 08:12 | 55.49447 | 15.22116 | 37237 ft | 406 kts | 60° |
| 2026-04-23 08:12 | 55.51768 | 15.31196 | 37237 ft | 406 kts | 60° |
| 2026-04-23 08:13 | 55.54088 | 15.40275 | 37230 ft | 406 kts | 60° |
| 2026-04-23 08:13 | 55.56402 | 15.49360 | 37224 ft | 405 kts | 60° |
| 2026-04-23 08:14 | 55.58682 | 15.58476 | 37226 ft | 405 kts | 60° |
| 2026-04-23 08:14 | 55.60989 | 15.67567 | 37218 ft | 405 kts | 60° |
| 2026-04-23 08:15 | 55.63287 | 15.76667 | 37222 ft | 405 kts | 60° |
| 2026-04-23 08:15 | 55.65564 | 15.85780 | 37213 ft | 405 kts | 60° |
| 2026-04-23 08:16 | 55.67838 | 15.94904 | 37212 ft | 405 kts | 60° |
| 2026-04-23 08:16 | 55.70105 | 16.04034 | 37212 ft | 405 kts | 60° |
| 2026-04-23 08:17 | 55.72361 | 16.13164 | 37214 ft | 404 kts | 60° |
| 2026-04-23 08:17 | 55.74613 | 16.22308 | 37212 ft | 404 kts | 60° |
| 2026-04-23 08:18 | 55.76855 | 16.31458 | 37210 ft | 404 kts | 60° |
| 2026-04-23 08:18 | 55.79084 | 16.40610 | 37209 ft | 403 kts | 60° |
| 2026-04-23 08:19 | 55.81300 | 16.49756 | 37213 ft | 403 kts | 60° |
| 2026-04-23 08:19 | 55.83514 | 16.58908 | 37214 ft | 402 kts | 60° |
| 2026-04-23 08:20 | 55.85719 | 16.68058 | 37209 ft | 402 kts | 60° |
| 2026-04-23 08:20 | 55.87915 | 16.77215 | 37209 ft | 402 kts | 60° |
| 2026-04-23 08:21 | 55.90099 | 16.86373 | 37204 ft | 401 kts | 60° |
| 2026-04-23 08:21 | 55.92280 | 16.95531 | 37205 ft | 401 kts | 60° |
| 2026-04-23 08:22 | 55.94449 | 17.04698 | 37200 ft | 401 kts | 60° |
| 2026-04-23 08:22 | 55.96612 | 17.13854 | 37201 ft | 400 kts | 60° |
| 2026-04-23 08:23 | 55.98769 | 17.23018 | 37202 ft | 400 kts | 60° |
| 2026-04-23 08:23 | 56.00551 | 17.30647 | 37200 ft | 400 kts | 60° |
| 2026-04-23 08:24 | 56.02690 | 17.39815 | 37197 ft | 400 kts | 60° |
| 2026-04-23 08:24 | 56.04820 | 17.48996 | 37189 ft | 400 kts | 60° |
| 2026-04-23 08:25 | 56.06941 | 17.58194 | 37180 ft | 400 kts | 60° |
| 2026-04-23 08:25 | 56.09056 | 17.67401 | 37178 ft | 400 kts | 60° |
| 2026-04-23 08:26 | 56.11167 | 17.76616 | 37178 ft | 400 kts | 60° |
| 2026-04-23 08:26 | 56.13272 | 17.85846 | 37178 ft | 400 kts | 60° |
| 2026-04-23 08:27 | 56.15371 | 17.95084 | 37173 ft | 400 kts | 60° |
| 2026-04-23 08:27 | 56.17465 | 18.04333 | 37170 ft | 400 kts | 60° |
| 2026-04-23 08:28 | 56.19563 | 18.13653 | 37174 ft | 400 kts | 60° |
| 2026-04-23 08:28 | 56.21641 | 18.22933 | 37170 ft | 400 kts | 60° |
| 2026-04-23 08:29 | 56.23355 | 18.32472 | 37165 ft | 411 kts | 69° |
| 2026-04-23 08:29 | 56.24498 | 18.42554 | 37163 ft | 412 kts | 69° |
| 2026-04-23 08:30 | 56.25641 | 18.52643 | 37160 ft | 412 kts | 69° |
| 2026-04-23 08:30 | 56.26788 | 18.62817 | 37154 ft | 412 kts | 69° |
| 2026-04-23 08:31 | 56.27914 | 18.72939 | 37152 ft | 413 kts | 69° |
| 2026-04-23 08:31 | 56.29033 | 18.83067 | 37152 ft | 413 kts | 70° |
| 2026-04-23 08:32 | 56.29387 | 18.88252 | 37145 ft | 424 kts | 78° |
| 2026-04-23 08:32 | 56.29253 | 18.93630 | 37145 ft | 436 kts | 88° |
| 2026-04-23 08:32 | 56.27975 | 19.04469 | 37135 ft | 444 kts | 92° |
| 2026-04-23 08:33 | 56.26623 | 19.15308 | 37134 ft | 444 kts | 92° |
| 2026-04-23 08:33 | 56.25267 | 19.26162 | 37135 ft | 446 kts | 93° |
| 2026-04-23 08:34 | 56.23176 | 19.36858 | 37126 ft | 457 kts | 101° |
| 2026-04-23 08:34 | 56.20855 | 19.47495 | 37129 ft | 457 kts | 101° |
| 2026-04-23 08:35 | 56.18532 | 19.58127 | 37124 ft | 458 kts | 101° |
| 2026-04-23 08:35 | 56.16195 | 19.68752 | 37119 ft | 458 kts | 102° |
| 2026-04-23 08:36 | 56.13844 | 19.79377 | 37125 ft | 458 kts | 102° |
| 2026-04-23 08:36 | 56.11485 | 19.89985 | 37126 ft | 458 kts | 102° |
| 2026-04-23 08:37 | 56.09120 | 20.00594 | 37116 ft | 459 kts | 102° |
| 2026-04-23 08:37 | 56.06745 | 20.11196 | 37119 ft | 459 kts | 102° |
| 2026-04-23 08:38 | 56.04362 | 20.21794 | 37116 ft | 459 kts | 102° |
| 2026-04-23 08:38 | 56.01970 | 20.32374 | 37112 ft | 459 kts | 102° |
| 2026-04-23 08:39 | 55.99561 | 20.42945 | 37108 ft | 459 kts | 102° |
| 2026-04-23 08:39 | 55.97142 | 20.53503 | 37096 ft | 459 kts | 102° |
| 2026-04-23 08:40 | 55.94718 | 20.64053 | 37081 ft | 459 kts | 102° |
| 2026-04-23 08:40 | 55.92291 | 20.74595 | 37078 ft | 459 kts | 102° |
| 2026-04-23 08:41 | 55.89855 | 20.85123 | 37065 ft | 459 kts | 103° |
| 2026-04-23 08:41 | 55.87400 | 20.95625 | 37055 ft | 459 kts | 103° |
| 2026-04-23 08:42 | 55.84933 | 21.06116 | 37060 ft | 459 kts | 103° |
| 2026-04-23 08:42 | 55.82463 | 21.16595 | 37051 ft | 459 kts | 103° |
| 2026-04-23 08:43 | 55.79986 | 21.27063 | 37053 ft | 460 kts | 103° |
| 2026-04-23 08:43 | 55.77497 | 21.37535 | 37054 ft | 460 kts | 103° |
| 2026-04-23 08:44 | 55.75002 | 21.47984 | 37049 ft | 460 kts | 103° |
| 2026-04-23 08:44 | 55.72495 | 21.58429 | 37043 ft | 460 kts | 103° |
| 2026-04-23 08:45 | 55.69975 | 21.68860 | 37034 ft | 460 kts | 104° |
| 2026-04-23 08:45 | 55.67443 | 21.79283 | 37030 ft | 461 kts | 104° |
| 2026-04-23 08:46 | 55.64903 | 21.89706 | 37023 ft | 461 kts | 104° |
| 2026-04-23 08:46 | 55.62355 | 22.00113 | 37018 ft | 461 kts | 104° |
| 2026-04-23 08:47 | 55.59797 | 22.10509 | 37010 ft | 461 kts | 104° |
| 2026-04-23 08:47 | 55.57225 | 22.20915 | 36697 ft | 463 kts | 104° |
| 2026-04-23 08:48 | 55.55935 | 22.26127 | 36279 ft | 463 kts | 104° |
| 2026-04-23 08:48 | 55.54640 | 22.31331 | 35882 ft | 463 kts | 104° |
| 2026-04-23 08:48 | 55.53342 | 22.36519 | 35484 ft | 463 kts | 104° |
| 2026-04-23 08:48 | 55.52038 | 22.41718 | 35099 ft | 463 kts | 103° |
| 2026-04-23 08:49 | 55.50735 | 22.46921 | 34716 ft | 464 kts | 103° |
| 2026-04-23 08:49 | 55.49430 | 22.52130 | 34334 ft | 464 kts | 103° |
| 2026-04-23 08:49 | 55.48125 | 22.57333 | 33956 ft | 464 kts | 103° |
| 2026-04-23 08:49 | 55.46816 | 22.62534 | 33511 ft | 465 kts | 103° |
| 2026-04-23 08:50 | 55.45499 | 22.67742 | 33088 ft | 466 kts | 103° |
| 2026-04-23 08:50 | 55.44175 | 22.72968 | 32665 ft | 467 kts | 103° |
| 2026-04-23 08:50 | 55.42847 | 22.78192 | 32249 ft | 468 kts | 103° |
| 2026-04-23 08:50 | 55.41515 | 22.83420 | 31844 ft | 469 kts | 103° |
| 2026-04-23 08:51 | 55.40180 | 22.88659 | 31437 ft | 470 kts | 103° |
| 2026-04-23 08:51 | 55.38840 | 22.93906 | 31042 ft | 471 kts | 103° |
| 2026-04-23 08:51 | 55.37497 | 22.99139 | 30647 ft | 467 kts | 103° |
| 2026-04-23 08:51 | 55.36165 | 23.04280 | 30258 ft | 456 kts | 103° |
| 2026-04-23 08:52 | 55.34861 | 23.09296 | 29845 ft | 447 kts | 103° |
| 2026-04-23 08:52 | 55.33579 | 23.14235 | 29401 ft | 448 kts | 103° |
| 2026-04-23 08:52 | 55.32278 | 23.19323 | 28950 ft | 463 kts | 104° |
| 2026-04-23 08:52 | 55.30953 | 23.24498 | 28512 ft | 465 kts | 104° |
| 2026-04-23 08:53 | 55.29623 | 23.29621 | 28074 ft | 456 kts | 105° |
| 2026-04-23 08:53 | 55.28308 | 23.34622 | 27645 ft | 447 kts | 105° |
| 2026-04-23 08:53 | 55.27018 | 23.39516 | 27222 ft | 438 kts | 105° |
| 2026-04-23 08:53 | 55.25753 | 23.44322 | 26813 ft | 430 kts | 105° |
| 2026-04-23 08:54 | 55.24511 | 23.49054 | 26408 ft | 424 kts | 105° |
| 2026-04-23 08:54 | 55.23288 | 23.53717 | 26005 ft | 418 kts | 105° |
| 2026-04-23 08:54 | 55.22080 | 23.58324 | 25609 ft | 414 kts | 105° |
| 2026-04-23 08:54 | 55.20882 | 23.62880 | 25215 ft | 410 kts | 105° |
| 2026-04-23 08:55 | 55.19691 | 23.67391 | 24826 ft | 406 kts | 105° |
| 2026-04-23 08:55 | 55.18512 | 23.71853 | 24450 ft | 402 kts | 105° |
| 2026-04-23 08:55 | 55.17344 | 23.76264 | 24074 ft | 398 kts | 105° |
| 2026-04-23 08:55 | 55.16187 | 23.80627 | 23705 ft | 393 kts | 105° |
| 2026-04-23 08:56 | 55.15037 | 23.84945 | 23303 ft | 389 kts | 105° |
| 2026-04-23 08:56 | 55.13898 | 23.89216 | 22867 ft | 386 kts | 105° |
| 2026-04-23 08:56 | 55.12768 | 23.93448 | 22439 ft | 383 kts | 105° |
| 2026-04-23 08:56 | 55.11643 | 23.97642 | 22015 ft | 380 kts | 105° |
| 2026-04-23 08:57 | 55.10525 | 24.01801 | 21606 ft | 377 kts | 105° |
| 2026-04-23 08:57 | 55.09411 | 24.05933 | 21192 ft | 375 kts | 105° |
| 2026-04-23 08:57 | 55.08303 | 24.10035 | 20785 ft | 372 kts | 105° |
| 2026-04-23 08:57 | 55.07202 | 24.14109 | 20391 ft | 370 kts | 104° |
| 2026-04-23 08:58 | 55.06109 | 24.18154 | 19995 ft | 367 kts | 104° |
| 2026-04-23 08:58 | 55.05025 | 24.22160 | 19622 ft | 365 kts | 104° |
| 2026-04-23 08:58 | 55.03944 | 24.26153 | 19257 ft | 362 kts | 104° |
| 2026-04-23 08:58 | 55.02872 | 24.30105 | 18895 ft | 360 kts | 104° |
| 2026-04-23 08:59 | 55.01803 | 24.34034 | 18542 ft | 358 kts | 104° |
| 2026-04-23 08:59 | 55.00738 | 24.37937 | 18182 ft | 356 kts | 104° |
| 2026-04-23 08:59 | 54.99676 | 24.41816 | 17782 ft | 354 kts | 104° |
| 2026-04-23 08:59 | 54.98617 | 24.45675 | 17378 ft | 352 kts | 104° |
| 2026-04-23 09:00 | 54.97567 | 24.49508 | 16982 ft | 350 kts | 104° |
| 2026-04-23 09:00 | 54.96521 | 24.53331 | 16587 ft | 349 kts | 104° |
| 2026-04-23 09:00 | 54.95478 | 24.57133 | 16199 ft | 348 kts | 104° |
| 2026-04-23 09:00 | 54.94433 | 24.60924 | 15814 ft | 347 kts | 104° |
| 2026-04-23 09:01 | 54.93390 | 24.64695 | 15431 ft | 346 kts | 104° |
| 2026-04-23 09:01 | 54.92336 | 24.68444 | 15056 ft | 346 kts | 105° |
| 2026-04-23 09:01 | 54.91186 | 24.72130 | 14683 ft | 348 kts | 108° |
| 2026-04-23 09:01 | 54.89962 | 24.75768 | 14261 ft | 349 kts | 109° |
| 2026-04-23 09:02 | 54.88701 | 24.79384 | 13598 ft | 351 kts | 110° |
| 2026-04-23 09:02 | 54.87842 | 24.81829 | 13087 ft | 350 kts | 110° |
| 2026-04-23 09:02 | 54.86582 | 24.85426 | 12347 ft | 348 kts | 110° |
| 2026-04-23 09:02 | 54.85221 | 24.88922 | 11674 ft | 353 kts | 122° |
| 2026-04-23 09:03 | 54.83349 | 24.91716 | 11124 ft | 359 kts | 142° |
| 2026-04-23 09:03 | 54.81051 | 24.93430 | 10577 ft | 361 kts | 163° |
| 2026-04-23 09:03 | 54.78576 | 24.93882 | 10139 ft | 354 kts | 179° |
| 2026-04-23 09:03 | 54.76141 | 24.93948 | 9757 ft | 347 kts | 179° |
| 2026-04-23 09:04 | 54.73748 | 24.94019 | 9322 ft | 341 kts | 178° |
| 2026-04-23 09:04 | 54.71394 | 24.94095 | 8878 ft | 335 kts | 178° |
| 2026-04-23 09:04 | 54.69086 | 24.94174 | 8493 ft | 328 kts | 178° |
| 2026-04-23 09:04 | 54.66832 | 24.94254 | 8127 ft | 321 kts | 178° |
| 2026-04-23 09:05 | 54.64626 | 24.94326 | 7758 ft | 313 kts | 178° |
| 2026-04-23 09:05 | 54.62472 | 24.94393 | 7416 ft | 306 kts | 178° |
| 2026-04-23 09:05 | 54.60376 | 24.94518 | 7109 ft | 297 kts | 171° |
| 2026-04-23 09:05 | 54.58406 | 24.95297 | 6805 ft | 285 kts | 155° |
| 2026-04-23 09:06 | 54.56663 | 24.96777 | 6502 ft | 275 kts | 142° |
| 2026-04-23 09:06 | 54.55053 | 24.98523 | 6176 ft | 272 kts | 143° |
| 2026-04-23 09:06 | 54.53436 | 25.00249 | 5681 ft | 272 kts | 144° |
| 2026-04-23 09:06 | 54.51832 | 25.01943 | 5283 ft | 269 kts | 144° |
| 2026-04-23 09:07 | 54.50247 | 25.03616 | 5029 ft | 266 kts | 144° |
| 2026-04-23 09:07 | 54.48838 | 25.05607 | 4690 ft | 259 kts | 128° |
| 2026-04-23 09:07 | 54.47813 | 25.08091 | 4332 ft | 252 kts | 113° |
| 2026-04-23 09:07 | 54.47134 | 25.10839 | 4013 ft | 248 kts | 107° |
| 2026-04-23 09:08 | 54.46552 | 25.13532 | 3940 ft | 232 kts | 97° |
| 2026-04-23 09:08 | 54.46741 | 25.16064 | 3849 ft | 204 kts | 53° |
| 2026-04-23 09:08 | 54.47746 | 25.17552 | 3752 ft | 188 kts | 25° |
| 2026-04-23 09:08 | 54.48913 | 25.18515 | 3538 ft | 184 kts | 20° |
| 2026-04-23 09:09 | 54.50103 | 25.19372 | 3288 ft | 185 kts | 19° |
| 2026-04-23 09:09 | 54.51266 | 25.20185 | 3043 ft | 177 kts | 19° |
| 2026-04-23 09:09 | 54.52395 | 25.20965 | 2813 ft | 174 kts | 18° |
| 2026-04-23 09:09 | 54.53501 | 25.21728 | 2588 ft | 166 kts | 18° |
| 2026-04-23 09:10 | 54.54535 | 25.22443 | 2359 ft | 155 kts | 18° |
| 2026-04-23 09:10 | 54.56448 | 25.23762 | 1948 ft | 142 kts | 18° |
| 2026-04-23 09:10 | 54.57338 | 25.24376 | 1756 ft | 134 kts | 17° |
| 2026-04-23 09:11 | 54.58155 | 25.24942 | 1567 ft | 120 kts | 17° |
| 2026-04-23 09:11 | 54.58916 | 25.25465 | 1425 ft | 116 kts | 17° |
| 2026-04-23 09:11 | 54.59665 | 25.25981 | 1226 ft | 115 kts | 17° |
| 2026-04-23 09:11 | 54.60405 | 25.26495 | 1067 ft | 115 kts | 18° |
| 2026-04-23 09:12 | 54.61141 | 25.27004 | 919 ft | 114 kts | 18° |
| 2026-04-23 09:12 | 54.61876 | 25.27509 | 735 ft | 113 kts | 18° |
| 2026-04-23 09:12 | 54.62598 | 25.28019 | 617 ft | 111 kts | 18° |
| 2026-04-23 09:12 | 54.63217 | 25.28438 | 606 ft | 73 kts | 22° |
| 2026-04-23 09:13 | 54.63545 | 25.28663 | 618 ft | 34 kts | 21° |
| 2026-04-23 09:13 | 54.63731 | 25.28768 | 631 ft | 21 kts | 354° |
| 2026-04-23 09:13 | 54.63861 | 25.28741 | 638 ft | 16 kts | 354° |
| 2026-04-23 09:13 | 54.63963 | 25.28723 | 642 ft | 13 kts | 354° |
| 2026-04-23 09:14 | 54.64048 | 25.28709 | 644 ft | 11 kts | 354° |
| 2026-04-23 09:14 | 54.64116 | 25.28680 | 646 ft | 9 kts | 312° |
| 2026-04-23 09:14 | 54.64119 | 25.28549 | 643 ft | 13 kts | 269° |
| 2026-04-23 09:14 | 54.64119 | 25.28362 | 639 ft | 14 kts | 278° |
| 2026-04-23 09:15 | 54.64174 | 25.28296 | 638 ft | 10 kts | 319° |
| 2026-04-23 09:15 | 54.64231 | 25.28281 | 641 ft | 3 kts | 359° |
| 2026-04-23 09:15 | 54.64248 | 25.28281 | 642 ft | 0 kts | 360° |